Portada
METAR-TAF:

METAR-TAF

Aeroports :

Nörvenich, Alemanya

latitud: 50-50N, longitud: 006-40E, altitud: 118 m

Observació

L'informe es va fer fa 22 minuts, a les 12:56 UTC
Vent 5 kt del Est
Temperatura 8°C
Humitat 76%
Pressió 1020 hPa
Visibilitat 10 km o més
Núvols disperses a una alçada de 4500 ft

METAR: ETNN 261256Z 09005KT 9999 SCT045 08/04 Q1020 BLU+BLU+

Hora: 14:18 (13:18 UTC)

Pronòstic

L'informe es va fer fa 2 hores i 7 minuts, a les 11:11 UTC
Pronòstic vàlid del 26 a les 12 UTC al 26 a les 21 UTC
Vent 5 kt del Est/Sud-Est
Visibilitat 10 km o més
Núvols disperses a una alçada de 4000 ft
Temporalment
l' 26 a les 19 UTC al 26 a les 21 UTC
Vent 3 kt del Sud/Sud-Est
Visibilitat: 3500 m
Cel ennuvolat a una alçada de 600 ft
Cel ennuvolat a una alçada de 2000 ft
boirina

TAF: ETNN 261111Z 2612/2621 12005KT 9999 NSW SCT040 TEMPO 2619/2621 15003KT 3500 BR BKN006 BKN020 BY ETGL

Observacions i pronòstics meteorològics de més de 4000 aeroports (METAR i TAF).

Les estacions disponibles són els punts grocs i vermells al mapa.

Posi el ratolí al punt desitjat per veure el nom de l'estació.

Feu clic per veure les observacions i els pronòstics meteorològics.

Per canviar el mapa: feu clic els botons verds amb una creu de color negre per apropar; al botó verd amb un guió per allunyar la imatge; o en les fletxes verdes per a mapes adjacents.


METAR-TAF: